sensor_id;sensor_type;location;lat;lon;timestamp;pressure;altitude;pressure_sealevel;temperature;humidity
49473;BME280;67434;50.956;6.918;2023-05-16T00:02:06;101135.97;;;11.83;80.74
49473;BME280;67434;50.956;6.918;2023-05-16T00:04:32;101133.31;;;11.88;81.16
49473;BME280;67434;50.956;6.918;2023-05-16T00:06:58;101135.03;;;11.73;81.72
49473;BME280;67434;50.956;6.918;2023-05-16T00:09:23;101132.16;;;11.79;81.96
49473;BME280;67434;50.956;6.918;2023-05-16T00:11:49;101140.19;;;11.74;82.06
49473;BME280;67434;50.956;6.918;2023-05-16T00:14:15;101129.63;;;11.73;82.59
49473;BME280;67434;50.956;6.918;2023-05-16T00:16:40;101142.09;;;11.74;82.76
49473;BME280;67434;50.956;6.918;2023-05-16T00:19:06;101138.25;;;11.70;84.14
49473;BME280;67434;50.956;6.918;2023-05-16T00:21:32;101130.75;;;11.77;83.40
49473;BME280;67434;50.956;6.918;2023-05-16T00:23:57;101133.34;;;11.67;83.39
49473;BME280;67434;50.956;6.918;2023-05-16T00:26:23;101132.03;;;11.69;83.58
49473;BME280;67434;50.956;6.918;2023-05-16T00:28:48;101126.09;;;11.72;83.09
49473;BME280;67434;50.956;6.918;2023-05-16T00:31:13;101134.22;;;11.72;83.06
49473;BME280;67434;50.956;6.918;2023-05-16T00:33:42;101139.59;;;11.67;83.39
49473;BME280;67434;50.956;6.918;2023-05-16T00:36:07;101129.81;;;11.66;83.72
49473;BME280;67434;50.956;6.918;2023-05-16T00:38:33;101126.56;;;11.64;83.27
49473;BME280;67434;50.956;6.918;2023-05-16T00:40:58;101133.25;;;11.56;83.91
49473;BME280;67434;50.956;6.918;2023-05-16T00:43:23;101140.16;;;11.69;83.37
49473;BME280;67434;50.956;6.918;2023-05-16T00:45:49;101133.34;;;11.45;84.28
49473;BME280;67434;50.956;6.918;2023-05-16T00:48:15;101123.84;;;11.42;84.91
49473;BME280;67434;50.956;6.918;2023-05-16T00:50:41;101131.78;;;11.49;84.02
49473;BME280;67434;50.956;6.918;2023-05-16T00:53:06;101137.44;;;11.47;84.57
49473;BME280;67434;50.956;6.918;2023-05-16T00:55:32;101135.81;;;11.46;84.39
49473;BME280;67434;50.956;6.918;2023-05-16T00:57:59;101131.16;;;11.42;84.07
49473;BME280;67434;50.956;6.918;2023-05-16T01:00:24;101134.63;;;11.37;84.46
49473;BME280;67434;50.956;6.918;2023-05-16T01:02:50;101135.75;;;11.19;84.62
49473;BME280;67434;50.956;6.918;2023-05-16T01:05:19;101145.47;;;11.15;85.13
49473;BME280;67434;50.956;6.918;2023-05-16T01:07:44;101147.09;;;11.16;84.63
49473;BME280;67434;50.956;6.918;2023-05-16T01:10:10;101144.84;;;11.13;85.13
49473;BME280;67434;50.956;6.918;2023-05-16T01:12:42;101142.16;;;11.13;84.74
49473;BME280;67434;50.956;6.918;2023-05-16T01:15:43;101154.97;;;11.01;85.65
49473;BME280;67434;50.956;6.918;2023-05-16T01:18:43;101148.16;;;11.15;85.09
49473;BME280;67434;50.956;6.918;2023-05-16T01:21:20;101143.09;;;11.02;84.88
49473;BME280;67434;50.956;6.918;2023-05-16T01:24:02;101160.38;;;11.01;85.18
49473;BME280;67434;50.956;6.918;2023-05-16T01:26:28;101151.00;;;10.87;85.21
49473;BME280;67434;50.956;6.918;2023-05-16T01:28:54;101150.50;;;10.73;86.22
49473;BME280;67434;50.956;6.918;2023-05-16T01:31:21;101149.94;;;10.71;86.30
49473;BME280;67434;50.956;6.918;2023-05-16T01:33:47;101150.44;;;10.85;86.47
49473;BME280;67434;50.956;6.918;2023-05-16T01:36:38;101158.06;;;10.88;86.11
49473;BME280;67434;50.956;6.918;2023-05-16T01:39:21;101163.53;;;10.76;86.54
49473;BME280;67434;50.956;6.918;2023-05-16T01:44:44;101179.69;;;10.71;86.41
49473;BME280;67434;50.956;6.918;2023-05-16T01:47:13;101168.97;;;10.59;86.42
49473;BME280;67434;50.956;6.918;2023-05-16T01:52:55;101194.56;;;10.40;86.48
49473;BME280;67434;50.956;6.918;2023-05-16T01:57:53;101185.66;;;10.23;88.03
49473;BME280;67434;50.956;6.918;2023-05-16T02:00:20;101185.06;;;10.21;87.18
49473;BME280;67434;50.956;6.918;2023-05-16T02:02:45;101187.94;;;10.31;87.53
49473;BME280;67434;50.956;6.918;2023-05-16T02:05:10;101188.34;;;10.23;86.97
49473;BME280;67434;50.956;6.918;2023-05-16T02:07:36;101210.28;;;10.26;87.22
49473;BME280;67434;50.956;6.918;2023-05-16T02:10:02;101192.94;;;10.22;86.53
49473;BME280;67434;50.956;6.918;2023-05-16T02:12:29;101192.00;;;10.17;87.46
49473;BME280;67434;50.956;6.918;2023-05-16T02:14:54;101192.34;;;10.20;87.25
49473;BME280;67434;50.956;6.918;2023-05-16T02:17:19;101198.56;;;10.21;86.78
49473;BME280;67434;50.956;6.918;2023-05-16T02:19:46;101209.13;;;10.22;86.36
49473;BME280;67434;50.956;6.918;2023-05-16T02:22:11;101205.50;;;10.17;85.90
49473;BME280;67434;50.956;6.918;2023-05-16T02:24:37;101212.25;;;10.02;86.30
49473;BME280;67434;50.956;6.918;2023-05-16T02:27:03;101213.91;;;10.03;86.54
49473;BME280;67434;50.956;6.918;2023-05-16T02:29:28;101214.75;;;9.92;84.89
49473;BME280;67434;50.956;6.918;2023-05-16T02:31:54;101227.88;;;9.72;85.64
49473;BME280;67434;50.956;6.918;2023-05-16T02:34:20;101244.66;;;9.62;86.28
49473;BME280;67434;50.956;6.918;2023-05-16T02:36:45;101246.44;;;9.57;84.89
49473;BME280;67434;50.956;6.918;2023-05-16T02:39:11;101242.34;;;9.43;85.01
49473;BME280;67434;50.956;6.918;2023-05-16T02:41:37;101235.44;;;9.35;85.28
49473;BME280;67434;50.956;6.918;2023-05-16T02:44:02;101240.00;;;9.23;85.80
49473;BME280;67434;50.956;6.918;2023-05-16T02:46:29;101244.81;;;9.21;85.74
49473;BME280;67434;50.956;6.918;2023-05-16T02:48:55;101248.69;;;9.13;85.61
49473;BME280;67434;50.956;6.918;2023-05-16T02:51:25;101251.63;;;9.12;85.97
49473;BME280;67434;50.956;6.918;2023-05-16T02:53:51;101264.63;;;9.15;85.56
49473;BME280;67434;50.956;6.918;2023-05-16T02:56:17;101263.13;;;9.07;86.42
49473;BME280;67434;50.956;6.918;2023-05-16T02:58:45;101278.00;;;9.09;85.82
49473;BME280;67434;50.956;6.918;2023-05-16T03:01:11;101265.44;;;8.92;86.74
49473;BME280;67434;50.956;6.918;2023-05-16T03:03:36;101279.06;;;8.97;86.33
49473;BME280;67434;50.956;6.918;2023-05-16T03:06:02;101279.66;;;8.99;86.14
49473;BME280;67434;50.956;6.918;2023-05-16T03:08:27;101282.81;;;8.96;85.78
49473;BME280;67434;50.956;6.918;2023-05-16T03:10:57;101295.72;;;8.94;85.90
49473;BME280;67434;50.956;6.918;2023-05-16T03:13:22;101277.88;;;8.93;86.13
49473;BME280;67434;50.956;6.918;2023-05-16T03:15:48;101270.69;;;8.87;86.49
49473;BME280;67434;50.956;6.918;2023-05-16T03:18:25;101282.34;;;8.99;86.39
49473;BME280;67434;50.956;6.918;2023-05-16T03:20:51;101286.06;;;8.86;86.65
49473;BME280;67434;50.956;6.918;2023-05-16T03:23:19;101282.91;;;8.89;86.24
49473;BME280;67434;50.956;6.918;2023-05-16T03:25:57;101289.94;;;8.90;86.42
49473;BME280;67434;50.956;6.918;2023-05-16T03:28:23;101278.47;;;8.95;86.53
49473;BME280;67434;50.956;6.918;2023-05-16T03:30:48;101286.69;;;9.00;84.85
49473;BME280;67434;50.956;6.918;2023-05-16T03:33:13;101292.28;;;8.87;85.11
49473;BME280;67434;50.956;6.918;2023-05-16T03:35:42;101295.72;;;8.94;86.14
49473;BME280;67434;50.956;6.918;2023-05-16T03:38:26;101286.66;;;8.88;86.23
49473;BME280;67434;50.956;6.918;2023-05-16T03:41:10;101294.88;;;8.93;86.23
49473;BME280;67434;50.956;6.918;2023-05-16T03:43:36;101307.19;;;9.01;86.64
49473;BME280;67434;50.956;6.918;2023-05-16T03:46:01;101306.28;;;9.07;85.70
49473;BME280;67434;50.956;6.918;2023-05-16T03:48:26;101314.94;;;9.09;85.04
49473;BME280;67434;50.956;6.918;2023-05-16T03:51:10;101318.59;;;9.15;85.55
49473;BME280;67434;50.956;6.918;2023-05-16T03:53:36;101310.59;;;9.08;86.07
49473;BME280;67434;50.956;6.918;2023-05-16T03:56:01;101312.00;;;9.11;85.94
49473;BME280;67434;50.956;6.918;2023-05-16T03:58:28;101311.19;;;8.98;84.65
49473;BME280;67434;50.956;6.918;2023-05-16T04:00:53;101321.63;;;9.06;84.74
49473;BME280;67434;50.956;6.918;2023-05-16T04:03:19;101321.88;;;9.05;85.48
49473;BME280;67434;50.956;6.918;2023-05-16T04:05:45;101329.59;;;9.13;84.94
49473;BME280;67434;50.956;6.918;2023-05-16T04:08:10;101331.38;;;9.19;85.06
49473;BME280;67434;50.956;6.918;2023-05-16T04:10:36;101329.94;;;9.05;85.18
49473;BME280;67434;50.956;6.918;2023-05-16T04:13:01;101342.63;;;9.04;85.03
49473;BME280;67434;50.956;6.918;2023-05-16T04:15:26;101330.06;;;9.10;83.47
49473;BME280;67434;50.956;6.918;2023-05-16T04:17:52;101347.41;;;9.02;83.75
49473;BME280;67434;50.956;6.918;2023-05-16T04:20:17;101345.06;;;9.06;83.81
49473;BME280;67434;50.956;6.918;2023-05-16T04:22:42;101350.47;;;9.06;83.21
49473;BME280;67434;50.956;6.918;2023-05-16T04:25:08;101359.75;;;9.10;83.84
49473;BME280;67434;50.956;6.918;2023-05-16T04:27:35;101348.72;;;9.12;82.95
49473;BME280;67434;50.956;6.918;2023-05-16T04:30:01;101352.94;;;9.07;83.20
49473;BME280;67434;50.956;6.918;2023-05-16T04:32:28;101362.31;;;9.05;83.15
49473;BME280;67434;50.956;6.918;2023-05-16T04:35:15;101362.41;;;8.98;82.83
49473;BME280;67434;50.956;6.918;2023-05-16T04:37:42;101368.03;;;8.97;82.27
49473;BME280;67434;50.956;6.918;2023-05-16T04:40:10;101381.06;;;9.00;82.29
49473;BME280;67434;50.956;6.918;2023-05-16T04:42:37;101384.22;;;8.97;81.79
49473;BME280;67434;50.956;6.918;2023-05-16T04:45:02;101377.41;;;8.94;82.11
49473;BME280;67434;50.956;6.918;2023-05-16T04:47:30;101392.78;;;8.94;80.75
49473;BME280;67434;50.956;6.918;2023-05-16T04:49:56;101387.09;;;8.84;80.77
49473;BME280;67434;50.956;6.918;2023-05-16T04:52:21;101394.91;;;8.73;80.80
49473;BME280;67434;50.956;6.918;2023-05-16T04:54:52;101396.44;;;8.69;80.76
49473;BME280;67434;50.956;6.918;2023-05-16T04:57:31;101399.66;;;8.60;80.60
49473;BME280;67434;50.956;6.918;2023-05-16T04:59:56;101414.00;;;8.72;80.65
49473;BME280;67434;50.956;6.918;2023-05-16T05:02:22;101409.84;;;8.58;80.24
49473;BME280;67434;50.956;6.918;2023-05-16T05:04:48;101409.31;;;8.49;81.21
49473;BME280;67434;50.956;6.918;2023-05-16T05:07:14;101426.09;;;8.51;80.37
49473;BME280;67434;50.956;6.918;2023-05-16T05:09:39;101430.72;;;8.44;80.07
49473;BME280;67434;50.956;6.918;2023-05-16T05:12:07;101426.75;;;8.46;80.19
49473;BME280;67434;50.956;6.918;2023-05-16T05:14:32;101434.94;;;8.40;80.13
49473;BME280;67434;50.956;6.918;2023-05-16T05:16:58;101430.72;;;8.44;80.35
49473;BME280;67434;50.956;6.918;2023-05-16T05:19:23;101441.50;;;8.44;80.08
49473;BME280;67434;50.956;6.918;2023-05-16T05:21:48;101429.53;;;8.40;81.38
49473;BME280;67434;50.956;6.918;2023-05-16T05:24:14;101439.72;;;8.38;81.02
49473;BME280;67434;50.956;6.918;2023-05-16T05:26:39;101436.56;;;8.41;81.00
49473;BME280;67434;50.956;6.918;2023-05-16T05:29:05;101436.41;;;8.54;80.08
49473;BME280;67434;50.956;6.918;2023-05-16T05:31:51;101440.78;;;8.55;80.17
49473;BME280;67434;50.956;6.918;2023-05-16T05:34:17;101452.16;;;8.57;80.31
49473;BME280;67434;50.956;6.918;2023-05-16T05:36:42;101458.50;;;8.63;79.52
49473;BME280;67434;50.956;6.918;2023-05-16T05:39:08;101455.00;;;8.62;79.11
49473;BME280;67434;50.956;6.918;2023-05-16T05:41:34;101463.34;;;8.54;78.75
49473;BME280;67434;50.956;6.918;2023-05-16T05:43:59;101478.66;;;8.60;78.53
49473;BME280;67434;50.956;6.918;2023-05-16T05:46:25;101464.81;;;8.57;78.74
49473;BME280;67434;50.956;6.918;2023-05-16T05:48:50;101466.44;;;8.58;78.88
49473;BME280;67434;50.956;6.918;2023-05-16T05:51:16;101461.78;;;8.65;78.53
49473;BME280;67434;50.956;6.918;2023-05-16T05:53:41;101471.28;;;8.67;78.39
49473;BME280;67434;50.956;6.918;2023-05-16T05:56:07;101460.97;;;8.64;78.40
49473;BME280;67434;50.956;6.918;2023-05-16T05:58:32;101480.94;;;8.75;78.16
49473;BME280;67434;50.956;6.918;2023-05-16T06:00:58;101481.53;;;8.77;78.71
49473;BME280;67434;50.956;6.918;2023-05-16T06:03:23;101474.72;;;8.74;77.40
49473;BME280;67434;50.956;6.918;2023-05-16T06:06:07;101491.72;;;8.75;77.77
49473;BME280;67434;50.956;6.918;2023-05-16T06:08:33;101489.16;;;8.80;76.93
49473;BME280;67434;50.956;6.918;2023-05-16T06:10:59;101494.56;;;8.80;75.73
49473;BME280;67434;50.956;6.918;2023-05-16T06:13:24;101501.00;;;8.79;76.52
49473;BME280;67434;50.956;6.918;2023-05-16T06:15:53;101504.22;;;8.88;75.79
49473;BME280;67434;50.956;6.918;2023-05-16T06:18:19;101492.91;;;8.79;76.26
49473;BME280;67434;50.956;6.918;2023-05-16T06:20:45;101501.06;;;8.91;76.47
49473;BME280;67434;50.956;6.918;2023-05-16T06:23:10;101500.63;;;8.94;76.86
49473;BME280;67434;50.956;6.918;2023-05-16T06:25:36;101507.72;;;8.88;76.93
49473;BME280;67434;50.956;6.918;2023-05-16T06:28:02;101509.81;;;9.04;75.94
49473;BME280;67434;50.956;6.918;2023-05-16T06:30:27;101516.03;;;9.05;75.32
49473;BME280;67434;50.956;6.918;2023-05-16T06:32:52;101519.19;;;9.02;75.33
49473;BME280;67434;50.956;6.918;2023-05-16T06:35:18;101508.69;;;9.12;73.81
49473;BME280;67434;50.956;6.918;2023-05-16T06:37:43;101509.75;;;9.23;73.69
49473;BME280;67434;50.956;6.918;2023-05-16T06:40:10;101521.75;;;9.27;72.51
49473;BME280;67434;50.956;6.918;2023-05-16T06:42:35;101513.13;;;9.36;72.49
49473;BME280;67434;50.956;6.918;2023-05-16T06:45:01;101511.00;;;9.38;72.68
49473;BME280;67434;50.956;6.918;2023-05-16T06:47:26;101518.28;;;9.38;71.64
49473;BME280;67434;50.956;6.918;2023-05-16T06:49:51;101505.38;;;9.40;72.39
49473;BME280;67434;50.956;6.918;2023-05-16T06:52:17;101523.44;;;9.39;72.73
49473;BME280;67434;50.956;6.918;2023-05-16T06:55:00;101527.06;;;9.33;71.29
49473;BME280;67434;50.956;6.918;2023-05-16T06:57:26;101515.34;;;9.39;70.98
49473;BME280;67434;50.956;6.918;2023-05-16T06:59:51;101516.88;;;9.35;71.37
49473;BME280;67434;50.956;6.918;2023-05-16T07:02:16;101521.94;;;9.44;70.56
49473;BME280;67434;50.956;6.918;2023-05-16T07:04:42;101524.03;;;9.42;70.74
49473;BME280;67434;50.956;6.918;2023-05-16T07:07:07;101519.94;;;9.51;70.19
49473;BME280;67434;50.956;6.918;2023-05-16T07:09:33;101528.84;;;9.39;70.37
49473;BME280;67434;50.956;6.918;2023-05-16T07:11:59;101533.91;;;9.48;70.49
49473;BME280;67434;50.956;6.918;2023-05-16T07:14:24;101527.69;;;9.47;68.97
49473;BME280;67434;50.956;6.918;2023-05-16T07:17:09;101532.63;;;9.50;69.87
49473;BME280;67434;50.956;6.918;2023-05-16T07:19:34;101520.66;;;9.58;69.60
49473;BME280;67434;50.956;6.918;2023-05-16T07:22:00;101525.25;;;9.57;69.37
49473;BME280;67434;50.956;6.918;2023-05-16T07:24:25;101521.84;;;9.62;68.57
49473;BME280;67434;50.956;6.918;2023-05-16T07:27:09;101527.25;;;9.62;68.22
49473;BME280;67434;50.956;6.918;2023-05-16T07:29:35;101539.34;;;9.59;68.31
49473;BME280;67434;50.956;6.918;2023-05-16T07:32:01;101535.34;;;9.62;67.62
49473;BME280;67434;50.956;6.918;2023-05-16T07:34:27;101523.25;;;9.64;67.04
49473;BME280;67434;50.956;6.918;2023-05-16T07:36:52;101530.31;;;9.65;67.59
49473;BME280;67434;50.956;6.918;2023-05-16T07:39:18;101549.16;;;9.84;66.52
49473;BME280;67434;50.956;6.918;2023-05-16T07:42:02;101538.69;;;9.87;65.72
49473;BME280;67434;50.956;6.918;2023-05-16T07:44:27;101544.56;;;9.84;63.92
49473;BME280;67434;50.956;6.918;2023-05-16T07:46:52;101540.34;;;9.88;63.88
49473;BME280;67434;50.956;6.918;2023-05-16T07:49:18;101540.00;;;9.96;64.13
49473;BME280;67434;50.956;6.918;2023-05-16T07:51:43;101534.72;;;10.01;64.49
49473;BME280;67434;50.956;6.918;2023-05-16T07:54:08;101541.75;;;10.02;63.10
49473;BME280;67434;50.956;6.918;2023-05-16T07:56:34;101562.47;;;10.09;62.01
49473;BME280;67434;50.956;6.918;2023-05-16T07:58:59;101571.63;;;10.08;62.54
49473;BME280;67434;50.956;6.918;2023-05-16T08:01:24;101525.56;;;10.02;62.58
49473;BME280;67434;50.956;6.918;2023-05-16T08:03:50;101562.25;;;10.10;61.23
49473;BME280;67434;50.956;6.918;2023-05-16T08:06:17;101540.84;;;10.09;62.76
49473;BME280;67434;50.956;6.918;2023-05-16T08:09:01;101538.50;;;10.12;61.55
49473;BME280;67434;50.956;6.918;2023-05-16T08:11:27;101533.47;;;10.27;61.05
49473;BME280;67434;50.956;6.918;2023-05-16T08:13:52;101542.63;;;10.38;62.19
49473;BME280;67434;50.956;6.918;2023-05-16T08:16:18;101537.34;;;10.55;63.93
49473;BME280;67434;50.956;6.918;2023-05-16T08:18:43;101536.63;;;10.71;63.69
49473;BME280;67434;50.956;6.918;2023-05-16T08:21:08;101534.16;;;10.81;63.59
49473;BME280;67434;50.956;6.918;2023-05-16T08:23:34;101540.38;;;10.82;62.58
49473;BME280;67434;50.956;6.918;2023-05-16T08:26:00;101539.78;;;10.80;61.61
49473;BME280;67434;50.956;6.918;2023-05-16T08:28:26;101539.22;;;10.66;60.87
49473;BME280;67434;50.956;6.918;2023-05-16T08:30:51;101545.91;;;10.63;61.29
49473;BME280;67434;50.956;6.918;2023-05-16T08:33:17;101540.75;;;10.62;61.37
49473;BME280;67434;50.956;6.918;2023-05-16T08:35:42;101548.16;;;10.67;61.80
49473;BME280;67434;50.956;6.918;2023-05-16T08:38:08;101548.25;;;10.72;61.92
49473;BME280;67434;50.956;6.918;2023-05-16T08:40:33;101559.66;;;10.74;60.45
49473;BME280;67434;50.956;6.918;2023-05-16T08:42:59;101556.00;;;10.68;60.36
49473;BME280;67434;50.956;6.918;2023-05-16T08:45:25;101543.00;;;10.53;60.85
49473;BME280;67434;50.956;6.918;2023-05-16T08:47:53;101546.66;;;10.47;61.54
49473;BME280;67434;50.956;6.918;2023-05-16T08:50:19;101555.34;;;10.49;60.99
49473;BME280;67434;50.956;6.918;2023-05-16T08:52:46;101549.56;;;10.57;60.68
49473;BME280;67434;50.956;6.918;2023-05-16T08:55:12;101539.91;;;10.73;60.67
49473;BME280;67434;50.956;6.918;2023-05-16T08:57:39;101537.91;;;10.80;61.17
49473;BME280;67434;50.956;6.918;2023-05-16T09:00:08;101538.34;;;10.89;61.01
49473;BME280;67434;50.956;6.918;2023-05-16T09:02:38;101535.25;;;10.97;59.12
49473;BME280;67434;50.956;6.918;2023-05-16T09:05:04;101527.19;;;11.14;58.90
49473;BME280;67434;50.956;6.918;2023-05-16T09:07:32;101529.06;;;11.25;56.66
49473;BME280;67434;50.956;6.918;2023-05-16T09:09:57;101541.28;;;11.27;55.51
49473;BME280;67434;50.956;6.918;2023-05-16T09:12:23;101534.00;;;11.28;55.34
49473;BME280;67434;50.956;6.918;2023-05-16T09:14:48;101539.22;;;11.18;55.11
49473;BME280;67434;50.956;6.918;2023-05-16T09:17:14;101528.72;;;11.21;55.93
49473;BME280;67434;50.956;6.918;2023-05-16T09:19:42;101533.25;;;11.33;54.99
49473;BME280;67434;50.956;6.918;2023-05-16T09:22:10;101543.41;;;11.25;54.56
49473;BME280;67434;50.956;6.918;2023-05-16T09:24:40;101548.44;;;11.34;54.69
49473;BME280;67434;50.956;6.918;2023-05-16T09:29:35;101539.59;;;11.38;55.05
49473;BME280;67434;50.956;6.918;2023-05-16T09:32:07;101532.03;;;11.40;55.16
49473;BME280;67434;50.956;6.918;2023-05-16T09:34:37;101532.72;;;11.47;56.38
49473;BME280;67434;50.956;6.918;2023-05-16T09:37:03;101534.22;;;11.55;54.20
49473;BME280;67434;50.956;6.918;2023-05-16T09:39:29;101530.78;;;11.59;54.53
49473;BME280;67434;50.956;6.918;2023-05-16T09:41:54;101533.03;;;11.51;54.20
49473;BME280;67434;50.956;6.918;2023-05-16T09:44:19;101527.16;;;11.54;54.73
49473;BME280;67434;50.956;6.918;2023-05-16T09:46:45;101527.00;;;11.61;54.55
49473;BME280;67434;50.956;6.918;2023-05-16T09:49:11;101528.97;;;11.65;53.22
49473;BME280;67434;50.956;6.918;2023-05-16T09:51:37;101525.84;;;11.73;53.93
49473;BME280;67434;50.956;6.918;2023-05-16T09:54:06;101535.38;;;11.76;53.01
49473;BME280;67434;50.956;6.918;2023-05-16T09:56:32;101538.09;;;11.76;53.84
49473;BME280;67434;50.956;6.918;2023-05-16T09:58:57;101541.81;;;11.86;52.98
49473;BME280;67434;50.956;6.918;2023-05-16T10:01:23;101540.56;;;11.77;52.49
49473;BME280;67434;50.956;6.918;2023-05-16T10:03:49;101531.03;;;11.75;52.49
49473;BME280;67434;50.956;6.918;2023-05-16T10:06:15;101546.56;;;11.79;52.32
49473;BME280;67434;50.956;6.918;2023-05-16T10:08:42;101539.34;;;11.85;52.43
49473;BME280;67434;50.956;6.918;2023-05-16T10:11:08;101530.03;;;11.93;51.92
49473;BME280;67434;50.956;6.918;2023-05-16T10:13:52;101524.09;;;11.96;51.94
49473;BME280;67434;50.956;6.918;2023-05-16T10:16:20;101552.84;;;11.97;52.63
49473;BME280;67434;50.956;6.918;2023-05-16T10:18:46;101539.53;;;11.95;52.56
49473;BME280;67434;50.956;6.918;2023-05-16T10:21:16;101537.34;;;11.92;51.68
49473;BME280;67434;50.956;6.918;2023-05-16T10:23:47;101537.41;;;11.97;52.01
49473;BME280;67434;50.956;6.918;2023-05-16T10:26:15;101543.16;;;12.01;50.04
49473;BME280;67434;50.956;6.918;2023-05-16T10:28:41;101535.44;;;12.09;49.47
49473;BME280;67434;50.956;6.918;2023-05-16T10:31:07;101527.88;;;12.11;49.16
49473;BME280;67434;50.956;6.918;2023-05-16T10:33:34;101519.88;;;12.21;49.38
49473;BME280;67434;50.956;6.918;2023-05-16T10:36:00;101523.66;;;12.37;47.40
49473;BME280;67434;50.956;6.918;2023-05-16T10:38:27;101516.41;;;12.43;47.75
49473;BME280;67434;50.956;6.918;2023-05-16T10:40:53;101519.75;;;12.50;48.30
49473;BME280;67434;50.956;6.918;2023-05-16T10:43:27;101515.63;;;12.64;48.18
49473;BME280;67434;50.956;6.918;2023-05-16T10:45:55;101523.97;;;12.63;47.43
49473;BME280;67434;50.956;6.918;2023-05-16T10:48:32;101519.72;;;12.67;47.21
49473;BME280;67434;50.956;6.918;2023-05-16T10:50:57;101506.53;;;12.75;46.00
49473;BME280;67434;50.956;6.918;2023-05-16T10:53:34;101504.72;;;12.81;45.62
49473;BME280;67434;50.956;6.918;2023-05-16T11:09:18;101529.19;;;12.86;47.54
49473;BME280;67434;50.956;6.918;2023-05-16T11:11:52;101520.22;;;12.86;47.10
49473;BME280;67434;50.956;6.918;2023-05-16T11:17:05;101518.53;;;13.01;47.37
49473;BME280;67434;50.956;6.918;2023-05-16T11:19:46;101527.59;;;13.12;47.79
49473;BME280;67434;50.956;6.918;2023-05-16T11:25:05;101514.66;;;13.41;46.45
49473;BME280;67434;50.956;6.918;2023-05-16T11:27:33;101523.97;;;13.50;46.30
49473;BME280;67434;50.956;6.918;2023-05-16T11:32:49;101529.31;;;13.40;48.50
49473;BME280;67434;50.956;6.918;2023-05-16T11:35:16;101526.16;;;13.53;47.74
49473;BME280;67434;50.956;6.918;2023-05-16T11:37:43;101540.88;;;13.57;47.53
49473;BME280;67434;50.956;6.918;2023-05-16T11:40:10;101532.66;;;13.52;47.89
49473;BME280;67434;50.956;6.918;2023-05-16T11:42:58;101528.78;;;13.43;48.17
49473;BME280;67434;50.956;6.918;2023-05-16T11:45:24;101533.41;;;13.42;48.48
49473;BME280;67434;50.956;6.918;2023-05-16T11:47:50;101540.53;;;13.49;49.06
49473;BME280;67434;50.956;6.918;2023-05-16T11:50:18;101542.47;;;13.53;48.13
49473;BME280;67434;50.956;6.918;2023-05-16T11:53:02;101540.88;;;13.57;48.90
49473;BME280;67434;50.956;6.918;2023-05-16T11:55:49;101539.75;;;13.53;48.91
49473;BME280;67434;50.956;6.918;2023-05-16T11:58:18;101547.06;;;13.53;48.86
49473;BME280;67434;50.956;6.918;2023-05-16T12:00:48;101542.13;;;13.44;48.46
49473;BME280;67434;50.956;6.918;2023-05-16T12:03:14;101544.56;;;13.46;49.07
49473;BME280;67434;50.956;6.918;2023-05-16T12:05:52;101535.69;;;13.56;49.10
49473;BME280;67434;50.956;6.918;2023-05-16T12:08:18;101527.81;;;13.54;48.55
49473;BME280;67434;50.956;6.918;2023-05-16T12:10:47;101537.34;;;13.57;48.30
49473;BME280;67434;50.956;6.918;2023-05-16T12:13:13;101529.31;;;13.40;46.91
49473;BME280;67434;50.956;6.918;2023-05-16T12:15:39;101543.19;;;13.43;47.89
49473;BME280;67434;50.956;6.918;2023-05-16T12:18:04;101538.19;;;13.35;48.47
49473;BME280;67434;50.956;6.918;2023-05-16T12:20:30;101532.28;;;13.38;48.99
49473;BME280;67434;50.956;6.918;2023-05-16T12:22:56;101533.00;;;13.34;49.90
49473;BME280;67434;50.956;6.918;2023-05-16T12:25:30;101536.84;;;13.38;49.02
49473;BME280;67434;50.956;6.918;2023-05-16T12:28:06;101523.88;;;13.40;49.71
49473;BME280;67434;50.956;6.918;2023-05-16T12:30:51;101525.59;;;13.51;49.75
49473;BME280;67434;50.956;6.918;2023-05-16T12:33:16;101524.97;;;13.71;47.93
49473;BME280;67434;50.956;6.918;2023-05-16T12:35:43;101528.03;;;13.80;47.33
49473;BME280;67434;50.956;6.918;2023-05-16T12:38:14;101527.59;;;13.93;47.70
49473;BME280;67434;50.956;6.918;2023-05-16T12:40:42;101536.34;;;14.00;47.74
49473;BME280;67434;50.956;6.918;2023-05-16T12:43:34;101517.91;;;14.07;46.11
49473;BME280;67434;50.956;6.918;2023-05-16T12:45:59;101528.31;;;14.15;45.62
49473;BME280;67434;50.956;6.918;2023-05-16T12:48:32;101519.00;;;14.06;45.50
49473;BME280;67434;50.956;6.918;2023-05-16T12:51:14;101529.84;;;14.01;46.68
49473;BME280;67434;50.956;6.918;2023-05-16T12:53:44;101530.34;;;13.98;48.60
49473;BME280;67434;50.956;6.918;2023-05-16T12:56:11;101535.13;;;13.81;49.89
49473;BME280;67434;50.956;6.918;2023-05-16T12:58:38;101536.28;;;13.90;49.57
49473;BME280;67434;50.956;6.918;2023-05-16T13:01:04;101532.00;;;13.99;49.87
49473;BME280;67434;50.956;6.918;2023-05-16T13:03:31;101533.06;;;13.98;50.12
49473;BME280;67434;50.956;6.918;2023-05-16T13:05:57;101545.72;;;14.14;50.40
49473;BME280;67434;50.956;6.918;2023-05-16T13:08:23;101534.31;;;14.17;49.44
49473;BME280;67434;50.956;6.918;2023-05-16T13:10:49;101548.69;;;14.13;48.75
49473;BME280;67434;50.956;6.918;2023-05-16T13:13:15;101545.91;;;14.07;49.16
49473;BME280;67434;50.956;6.918;2023-05-16T13:15:41;101532.84;;;14.04;49.88
49473;BME280;67434;50.956;6.918;2023-05-16T13:18:07;101526.84;;;14.02;50.02
49473;BME280;67434;50.956;6.918;2023-05-16T13:20:32;101523.16;;;14.14;49.70
49473;BME280;67434;50.956;6.918;2023-05-16T13:22:57;101539.00;;;14.27;48.44
49473;BME280;67434;50.956;6.918;2023-05-16T13:25:23;101530.25;;;14.20;48.94
49473;BME280;67434;50.956;6.918;2023-05-16T13:28:07;101537.03;;;14.17;48.79
49473;BME280;67434;50.956;6.918;2023-05-16T13:30:35;101529.72;;;14.23;48.09
49473;BME280;67434;50.956;6.918;2023-05-16T13:33:01;101526.84;;;14.39;47.35